Observations
| Time | Sensor | AQI | SAQ | Temp °C | Hum % | Pres Pa | CO μg/m³ | H₂S μg/m³ | NO μg/m³ | NO₂ μg/m³ | O₃ μg/m³ | SO₂ μg/m³ | CO₂e PPM | VOC PPM | PM1 μg/m³ | PM2.5 μg/m³ | PM4 μg/m³ | PM10 μg/m³ | TPS µm |
|---|---|---|---|---|---|---|---|---|---|---|---|---|---|---|---|---|---|---|---|
| Tuesday 11 August 2026 | |||||||||||||||||||
| 15:24 | Trim Market St | 2 | 40.6 | 17 | 67,132 | 0 | 14.24 | 0.07 | 17.2 | 94.48 | 7.18 | 1.43 | 4.99 | 5.49 | |||||
| 15:24 | Trim Patrick St | 2 | 35.5 | 23 | 69,656 | 0 | 5.34 | 0.54 | 16.81 | 84.43 | 21.18 | 2 | 8.09 | 8.9 | |||||
| 15:23 | Trim Patrick St | 2 | 35.4 | 24 | 69,644 | 0 | 8.24 | 0.6 | 15.22 | 118.87 | 23.1 | 2.86 | 8.88 | 9.77 | |||||
| 15:22 | Trim Market St | 2 | 40.4 | 17 | 67,130 | 0 | 10.84 | 0.07 | 15.66 | 78.61 | 7.47 | 0 | 3.86 | 4.24 | |||||
| 15:22 | Trim Patrick St | 2 | 35.3 | 24 | 69,628 | 0 | 9.17 | 0.63 | 18.29 | 123.39 | 22.37 | 2.86 | 8.88 | 9.77 | |||||
| 15:21 | Trim Patrick St | 2 | 35.2 | 24 | 69,612 | 0 | 11.96 | 0.64 | 18.99 | 138.14 | 22.64 | 2 | 8.07 | 8.88 | |||||
| 15:20 | Trim Market St | 2 | 40.3 | 17 | 67,128 | 0 | 16.61 | 0.05 | 16.88 | 73.19 | 7.05 | 0 | 3.86 | 4.24 | |||||
| 15:20 | Trim Patrick St | 2 | 35.1 | 24 | 69,591 | 0 | 11.62 | 0.6 | 14.77 | 79.58 | 22.55 | 2 | 8.05 | 8.85 | |||||
| 15:19 | Trim Patrick St | 2 | 35 | 24 | 69,565 | 0 | 20.03 | 0.68 | 17.88 | 163.91 | 24.22 | 2.86 | 9.71 | 10.68 | |||||
| 15:17 | Trim Patrick St | 2 | 34.9 | 25 | 69,557 | 0 | 5.7 | 0.58 | 14.11 | 92.32 | 21.73 | 2 | 8.01 | 8.81 | |||||
| 15:16 | Trim Market St | 2 | 40.2 | 17 | 67,132 | 0 | 37.54 | 0.1 | 25.05 | 92.64 | 7.94 | 0.71 | 4.44 | 4.88 | |||||
| 15:14 | Trim Patrick St | 2 | 34.8 | 24 | 69,585 | 0 | 0 | 0.46 | 13.38 | 102.71 | 22.35 | 2.86 | 8.88 | 9.77 | |||||
| 15:13 | Trim Patrick St | 2 | 34.9 | 23 | 69,587 | 0 | 0 | 0.5 | 13.51 | 100.06 | 20.34 | 2.86 | 8.91 | 9.8 | |||||
| 15:12 | Trim Market St | 2 | 40.9 | 16 | 67,204 | 0 | 15.69 | 0 | 16.06 | 92.14 | 8.08 | 1.43 | 5.04 | 5.54 | |||||
| 15:09 | Trim Market St | 2 | 41.5 | 16 | 67,282 | 0 | 0 | 0 | 15.48 | 100.49 | 9.11 | 0 | 4.49 | 4.94 | |||||
| 15:09 | Trim Patrick St | 2 | 35.3 | 23 | 69,608 | 0 | 8.84 | 0.43 | 18.34 | 142.28 | 23.57 | 2 | 8.12 | 8.93 | |||||
| 15:08 | Trim Market St | 2 | 41.8 | 16 | 67,316 | 0 | 5.48 | 0 | 15.54 | 105.44 | 8.06 | 0 | 3.36 | 3.7 | |||||
| 15:08 | Trim Patrick St | 2 | 35.4 | 22 | 69,618 | 0 | 0 | 0.4 | 15.3 | 88.63 | 20.22 | 2 | 8.19 | 9 | |||||
| 15:04 | Trim Patrick St | 2 | 35.8 | 22 | 69,656 | 0 | 0 | 0.33 | 15.35 | 143.02 | 22.75 | 2 | 8.17 | 8.99 | |||||
| 15:03 | Trim Patrick St | 2 | 35.9 | 21 | 69,646 | 0 | 0 | 0.33 | 13.97 | 88.5 | 20.98 | 2 | 8.26 | 9.08 | |||||